Terminal Aerodrome Forecast
Issued by NWS

Home | Current Version | Previous Version | Text Only | Print | Product List | Glossary On
Versions: 1 2 3 4 5 6 7 8 9 10 11 12 13 14
000
FTUS42 KRAH 251921 AAA
TAFINT
TAF AMD
KINT 251921Z 2519/2618 23004KT P6SM VCSH SCT050 BKN250
     FM260000 VRB02KT P6SM FEW050 SCT250=

USA.gov is the U.S. government's official web portal to all federal, state and local government web resources and services.